Jonni Ritscher — A8JT7 — position and weather

sailwx.info

Track history (hours):
 
Tides and Currents Weather Stations Pressure Air Temp Water Temp Dewpoint Dewpoint Depression Visibility Wind Speed Wind Dir Waves Ship Positions

Jonni Ritscher

Last reported at 2017-Sep-20 20:34 UTC. Time now 2017-Sep-23 18:34 UTC.
Position N 59°35' E 022°58'.

Length 179 m; draft 10.6 m.

Type: Ship. MMSI: 636091136.

Date/timePositionNaut miles runAvg speedWind from/ knotsBaromVisibWave heightAir tempDewpointWater temp
2017-Sep-20 20:34N 59°35' E 022°58'1 9.8
2017-Sep-20 20:30N 59°35' E 022°59'5 9.9
2017-Sep-20 20:00N 59°37' E 023°09'5 9.7
2017-Sep-20 19:30N 59°38' E 023°18'5 9.5
2017-Sep-20 19:00N 59°39' E 023°27'5 9.6
2017-Sep-20 18:30N 59°41' E 023°36'5 9.6
2017-Sep-20 18:00N 59°42' E 023°45'5 9.6
2017-Sep-20 17:30N 59°43' E 023°54'5 9.7
2017-Sep-20 17:00N 59°45' E 024°03'510.1
2017-Sep-20 16:30N 59°46' E 024°13'5 9.9
2017-Sep-20 16:00N 59°47' E 024°23'5 9.7
2017-Sep-20 15:30N 59°48' E 024°32'5 9.7
2017-Sep-20 15:01N 59°49' E 024°42'46 9.7
2017-Sep-20 10:14N 59°58' E 026°12'2 9.6
2017-Sep-20 10:01N 59°59' E 026°16'5 9.7
2017-Sep-20 09:31N 60°00' E 026°26'5 9.7
2017-Sep-20 09:01N 60°01' E 026°35'5 9.7
2017-Sep-20 08:31N 60°01' E 026°45'5 9.9
2017-Sep-20 08:01N 60°00' E 026°54'5 9.5
2017-Sep-20 07:31N 59°60' E 027°04'5 9.9
2017-Sep-20 07:01N 60°02' E 027°12'5 9.8
2017-Sep-20 06:30N 60°05' E 027°21'5 9.9
2017-Sep-20 06:01N 60°07' E 027°29'5 9.8
2017-Sep-20 05:31N 60°10' E 027°38'5 9.6
2017-Sep-20 05:00N 60°12' E 027°46'5 9.9
2017-Sep-20 04:31N 60°11' E 027°56'5 9.9
2017-Sep-20 04:01N 60°10' E 028°05'5 9.8
2017-Sep-20 03:30N 60°09' E 028°15'5 9.5
2017-Sep-20 03:01N 60°06' E 028°22'5 9.6
2017-Sep-20 02:31N 60°03' E 028°31'5 9.7
2017-Sep-20 02:01N 60°03' E 028°41'5 9.5
2017-Sep-20 01:30N 60°03' E 028°50'5 9.6
2017-Sep-20 01:00N 60°02' E 028°60'5 9.9
2017-Sep-20 00:30N 60°02' E 029°10'5 9.8
2017-Sep-20 00:00N 60°02' E 029°20'4 8.9
2017-Sep-19 23:30N 60°01' E 029°28'611.1
2017-Sep-19 23:00N 59°60' E 029°39'510.0
2017-Sep-19 22:30N 59°58' E 029°48'611.7
2017-Sep-19 22:00N 59°56' E 029°59'5 9.5
2017-Sep-19 21:30N 59°54' E 030°08'2 4.6
2017-Sep-19 21:00N 59°53' E 030°12'0 0.0
2017-Sep-19 20:28N 59°53' E 030°12'0 0.0
2017-Sep-19 19:55N 59°53' E 030°12'0 0.0
2017-Sep-19 19:28N 59°53' E 030°12'0 0.0
2017-Sep-19 18:58N 59°53' E 030°12'0 0.0
2017-Sep-19 18:31N 59°53' E 030°12'0 0.0
2017-Sep-19 17:54N 59°53' E 030°12'0 0.0
2017-Sep-19 17:30N 59°53' E 030°12'0 0.0
2017-Sep-19 17:00N 59°53' E 030°12'0 0.0
2017-Sep-19 16:14N 59°53' E 030°12'0 0.0
2017-Sep-19 15:59N 59°53' E 030°12'0 0.0
2017-Sep-19 15:29N 59°53' E 030°12'0 0.0
2017-Sep-19 14:56N 59°53' E 030°12'0 0.0
2017-Sep-19 14:26N 59°53' E 030°12'0 0.0
2017-Sep-19 13:59N 59°53' E 030°12'0 0.0
2017-Sep-19 13:28N 59°53' E 030°12'0 0.0
2017-Sep-19 12:58N 59°53' E 030°12'0 0.0
2017-Sep-19 12:28N 59°53' E 030°12'0 0.0
2017-Sep-19 11:58N 59°53' E 030°12'0 0.0
2017-Sep-19 11:31N 59°53' E 030°12'0 0.0
2017-Sep-19 11:00N 59°53' E 030°12'0 0.0
2017-Sep-19 10:30N 59°53' E 030°12'0 0.0
2017-Sep-19 10:00N 59°53' E 030°12'0 0.0
2017-Sep-19 09:30N 59°53' E 030°12'0 0.0
2017-Sep-19 08:53N 59°53' E 030°12'0 0.0
2017-Sep-19 08:29N 59°53' E 030°12'0 0.0
2017-Sep-19 07:59N 59°53' E 030°12'0 0.0
2017-Sep-19 07:26N 59°53' E 030°12'0 0.0
2017-Sep-19 06:59N 59°53' E 030°12'0 0.0
2017-Sep-19 06:25N 59°53' E 030°12'0 0.0
2017-Sep-19 05:58N 59°53' E 030°12'0 0.0
2017-Sep-19 05:28N 59°53' E 030°12'0 0.0
2017-Sep-19 04:58N 59°53' E 030°12'0 0.0
2017-Sep-19 04:24N 59°53' E 030°12'0 0.0
2017-Sep-19 04:00N 59°53' E 030°12'0 0.0
2017-Sep-19 03:27N 59°53' E 030°12'0 0.0
2017-Sep-19 03:00N 59°53' E 030°12'0 0.0
2017-Sep-19 02:30N 59°53' E 030°12'0 0.0
2017-Sep-19 01:59N 59°53' E 030°12'0 0.0
2017-Sep-19 01:29N 59°53' E 030°12'0 0.0
2017-Sep-19 00:59N 59°53' E 030°12'0 0.0
2017-Sep-19 00:29N 59°53' E 030°12'0 0.0
2017-Sep-18 23:58N 59°53' E 030°12'0 0.0
2017-Sep-18 23:28N 59°53' E 030°12'0 0.0
2017-Sep-18 22:58N 59°53' E 030°12'0 0.0
2017-Sep-18 22:30N 59°53' E 030°12'1 1.2
2017-Sep-18 22:01N 59°53' E 030°11'1 2.8
2017-Sep-18 21:30N 59°54' E 030°14'0 0.1
2017-Sep-18 20:58N 59°54' E 030°14'0 0.0
2017-Sep-18 20:30N 59°54' E 030°14'0 0.0
2017-Sep-18 20:00N 59°54' E 030°14'0 0.0
2017-Sep-18 19:30N 59°54' E 030°14'0 0.0
2017-Sep-18 19:00N 59°54' E 030°14'0 0.0
2017-Sep-18 18:29N 59°54' E 030°14'0 0.0
2017-Sep-18 17:59N 59°54' E 030°14'0 0.0
2017-Sep-18 17:29N 59°54' E 030°14'0 0.0
2017-Sep-18 16:59N 59°54' E 030°14'0 0.0
2017-Sep-18 16:29N 59°54' E 030°14'0 0.0
2017-Sep-18 15:58N 59°54' E 030°14'0 0.0
2017-Sep-18 15:28N 59°54' E 030°14'0 0.0
2017-Sep-18 15:00N 59°54' E 030°14'0 0.0
2017-Sep-18 14:30N 59°54' E 030°14'0 0.0
2017-Sep-18 14:00N 59°54' E 030°14'0 0.0
2017-Sep-18 13:29N 59°54' E 030°14'0 0.0
2017-Sep-18 12:59N 59°54' E 030°14'0 0.0
2017-Sep-18 12:29N 59°54' E 030°14'0 0.0
2017-Sep-18 11:56N 59°54' E 030°14'0 0.0
2017-Sep-18 11:28N 59°54' E 030°14'0 0.0
2017-Sep-18 10:58N 59°54' E 030°14'0 0.0
2017-Sep-18 10:28N 59°54' E 030°14'0 0.0
2017-Sep-18 09:55N 59°54' E 030°14'0 0.0
2017-Sep-18 09:28N 59°54' E 030°14'0 0.0
2017-Sep-18 09:00N 59°54' E 030°14'0 0.0
2017-Sep-18 08:30N 59°54' E 030°14'0 0.0
2017-Sep-18 07:59N 59°54' E 030°14'0 0.0
2017-Sep-18 07:28N 59°54' E 030°14'0 0.0
2017-Sep-18 07:00N 59°54' E 030°14'0 0.0
2017-Sep-18 06:29N 59°54' E 030°14'0 0.0
2017-Sep-18 06:00N 59°54' E 030°14'0 0.0
2017-Sep-18 05:30N 59°54' E 030°14'0 0.0
2017-Sep-18 05:00N 59°54' E 030°14'0 0.0
2017-Sep-18 04:29N 59°54' E 030°14'0 0.0
2017-Sep-18 03:56N 59°54' E 030°14'0 0.0
2017-Sep-18 03:30N 59°54' E 030°14'1 2.6
2017-Sep-18 03:00N 59°53' E 030°11'3 6.4
2017-Sep-18 02:30N 59°54' E 030°05'510.4
2017-Sep-18 02:00N 59°56' E 029°56'611.4
2017-Sep-18 01:30N 59°59' E 029°45'510.6
2017-Sep-18 01:00N 60°01' E 029°35'5 9.2
2017-Sep-18 00:30N 60°01' E 029°26'612.8
2017-Sep-18 00:00N 60°02' E 029°14'815.9
2017-Sep-17 23:30N 60°02' E 028°58'815.2
2017-Sep-17 23:00N 60°02' E 028°43'815.3
2017-Sep-17 22:30N 60°03' E 028°27'714.9
2017-Sep-17 22:00N 60°07' E 028°15'815.5
2017-Sep-17 21:31N 60°09' E 028°00'714.6
2017-Sep-17 21:01N 60°11' E 027°46'714.3
2017-Sep-17 20:31N 60°07' E 027°34'714.2
2017-Sep-17 20:01N 60°03' E 027°21'714.3
2017-Sep-17 19:31N 59°60' E 027°09'714.7
2017-Sep-17 19:01N 59°58' E 026°55'815.7
2017-Sep-17 18:30N 59°59' E 026°39'815.8
2017-Sep-17 18:01N 59°57' E 026°24'4316.0
2017-Sep-17 15:18N 59°47' E 025°00'516.1
2017-Sep-17 15:01N 59°46' E 024°51'816.1
2017-Sep-17 14:31N 59°45' E 024°35'816.1
2017-Sep-17 14:01N 59°43' E 024°19'1016.3
2017-Sep-17 13:24N 59°40' E 024°01'819.1
2017-Sep-17 13:00N 59°38' E 023°47'1019.5
2017-Sep-17 12:30N 59°35' E 023°28'1019.4
2017-Sep-17 12:00N 59°31' E 023°10'26319.6
2017-Sep-16 22:36N 56°21' E 017°27'219.8
2017-Sep-16 22:30N 56°20' E 017°24'1019.7
2017-Sep-16 22:00N 56°14' E 017°10'1019.8
2017-Sep-16 21:30N 56°08' E 016°56'1019.8
2017-Sep-16 21:00N 56°02' E 016°42'1019.6
2017-Sep-16 20:30N 55°57' E 016°28'1019.5
2017-Sep-16 20:00N 55°52' E 016°12'1019.5
2017-Sep-16 19:30N 55°47' E 015°57'1019.6
2017-Sep-16 19:00N 55°43' E 015°42'1019.5
2017-Sep-16 18:30N 55°38' E 015°27'1019.4
2017-Sep-16 18:00N 55°34' E 015°11'1019.8
2017-Sep-16 17:30N 55°29' E 014°56'1020.2
2017-Sep-16 17:00N 55°24' E 014°40'1019.6
2017-Sep-16 16:30N 55°16' E 014°29'1019.7
2017-Sep-16 16:00N 55°09' E 014°19'1019.5
2017-Sep-16 15:30N 55°01' E 014°08'3319.4
2017-Sep-16 13:49N 54°51' E 013°14'3419.1
2017-Sep-16 12:03N 54°36' E 012°21'119.2
2017-Sep-16 12:00N 54°36' E 012°20'918.9
2017-Sep-16 11:30N 54°27' E 012°13'1718.1
2017-Sep-16 10:36N 54°24' E 011°45'519.6
2017-Sep-16 10:21N 54°27' E 011°38'719.6
2017-Sep-16 10:00N 54°30' E 011°27'1019.5
2017-Sep-16 09:30N 54°34' E 011°12'1019.5
2017-Sep-16 09:00N 54°40' E 010°58'714.9
2017-Sep-16 08:30N 54°46' E 010°52'815.8
2017-Sep-16 08:00N 54°54' E 010°53'815.3
2017-Sep-16 07:30N 54°60' E 011°01'816.6
2017-Sep-16 07:00N 55°08' E 011°03'714.1
2017-Sep-16 06:31N 55°15' E 011°05'9415.2
2017-Sep-16 00:19N 56°46' E 011°51'514.8
2017-Sep-16 00:00N 56°50' E 011°49'915.0
2017-Sep-15 23:23N 56°59' E 011°43'1014.6
2017-Sep-15 22:44N 57°08' E 011°37'314.2
2017-Sep-15 22:29N 57°11' E 011°35'714.1
2017-Sep-15 21:59N 57°18' E 011°31'714.1
2017-Sep-15 21:30N 57°24' E 011°26'714.5
2017-Sep-15 21:00N 57°30' E 011°19'814.7
2017-Sep-15 20:30N 57°35' E 011°08'815.0
2017-Sep-15 20:00N 57°40' E 010°58'815.3
2017-Sep-15 19:30N 57°45' E 010°48'815.2
2017-Sep-15 19:00N 57°48' E 010°34'918.1
2017-Sep-15 18:30N 57°46' E 010°18'1118.4
2017-Sep-15 17:53N 57°42' E 009°58'27318.9
2017-Sep-15 03:27N 54°03' E 005°07'817.3
2017-Sep-15 02:59N 53°55' E 005°02'917.3
2017-Sep-15 02:29N 53°47' E 004°57'917.4
2017-Sep-15 01:59N 53°39' E 004°52'1617.4
2017-Sep-15 01:03N 53°24' E 004°41'117.4
2017-Sep-15 01:00N 53°23' E 004°41'2117.7
2017-Sep-14 23:50N 53°04' E 004°25'617.7
2017-Sep-14 23:30N 52°59' E 004°21'917.9
2017-Sep-14 23:00N 52°51' E 004°14'917.9
2017-Sep-14 22:30N 52°44' E 004°07'917.9
2017-Sep-14 22:00N 52°36' E 003°60'917.7
2017-Sep-14 21:29N 52°27' E 003°54'917.6
2017-Sep-14 21:00N 52°19' E 003°52'816.6
2017-Sep-14 20:30N 52°11' E 003°54'611.5
2017-Sep-14 20:00N 52°05' E 003°54'2 3.4
2017-Sep-14 19:30N 52°04' E 003°57'4 8.5
2017-Sep-14 19:00N 52°00' E 004°01'3 5.4
2017-Sep-14 18:30N 51°58' E 004°03'2 3.9
2017-Sep-14 18:00N 51°57' E 003°60'0 0.0
2017-Sep-14 17:30N 51°57' E 003°60'0 0.0
2017-Sep-14 16:56N 51°57' E 003°60'0 0.0
2017-Sep-14 16:26N 51°57' E 003°60'0 0.0
2017-Sep-14 15:56N 51°57' E 003°60'0 0.0
2017-Sep-14 15:26N 51°57' E 003°60'0 0.0
2017-Sep-14 14:59N 51°57' E 003°60'0 0.0
2017-Sep-14 14:28N 51°57' E 003°60'0 0.0
2017-Sep-14 14:00N 51°57' E 003°60'0 0.0
2017-Sep-14 13:30N 51°57' E 003°60'0 0.0
2017-Sep-14 12:57N 51°57' E 003°60'0 0.0
2017-Sep-14 12:29N 51°57' E 003°60'0 0.0
2017-Sep-14 11:56N 51°57' E 003°60'0 0.0
2017-Sep-14 11:29N 51°57' E 003°60'0 0.0
2017-Sep-14 10:55N 51°57' E 003°60'0 0.0
2017-Sep-14 10:30N 51°57' E 003°60'0 0.0
2017-Sep-14 10:00N 51°57' E 003°60'0 0.0
2017-Sep-14 09:30N 51°57' E 003°60'0 0.0
2017-Sep-14 09:00N 51°57' E 003°60'0 0.0
2017-Sep-14 08:30N 51°57' E 003°60'0 0.0
2017-Sep-14 08:00N 51°57' E 003°60'0 0.0
2017-Sep-14 07:30N 51°57' E 003°60'0 0.0
2017-Sep-14 07:00N 51°57' E 003°60'0 0.0
2017-Sep-14 06:30N 51°57' E 003°60'0 0.0
2017-Sep-14 06:00N 51°57' E 003°60'0 0.0
2017-Sep-14 05:30N 51°57' E 003°60'0 0.0
2017-Sep-14 05:00N 51°57' E 003°60'0 0.0
2017-Sep-14 04:30N 51°57' E 003°60'0 0.0
2017-Sep-14 04:00N 51°57' E 003°60'0 0.0
2017-Sep-14 03:30N 51°57' E 003°60'0 0.0
2017-Sep-14 03:00N 51°57' E 003°60'0 0.0
2017-Sep-14 02:30N 51°57' E 003°60'0 0.0
2017-Sep-14 02:00N 51°57' E 003°60'0 0.0
2017-Sep-14 01:30N 51°57' E 003°60'0 0.0
2017-Sep-14 01:00N 51°57' E 003°60'0 0.0
2017-Sep-14 00:30N 51°57' E 003°60'0 0.0
2017-Sep-14 00:00N 51°57' E 003°60'0 0.0
2017-Sep-13 23:30N 51°57' E 003°60'0 0.0
2017-Sep-13 23:00N 51°57' E 003°60'0 0.0
2017-Sep-13 22:30N 51°57' E 003°60'0 0.0
2017-Sep-13 22:00N 51°57' E 003°60'0 0.0
2017-Sep-13 21:30N 51°57' E 003°60'0 0.0
2017-Sep-13 21:00N 51°57' E 003°60'0 0.0
2017-Sep-13 20:30N 51°57' E 003°60'0 0.0
2017-Sep-13 20:00N 51°57' E 003°60'0 0.0
2017-Sep-13 19:30N 51°57' E 003°60'0 0.0
2017-Sep-13 19:00N 51°57' E 003°60'0 0.0
2017-Sep-13 18:30N 51°57' E 003°60'0 0.0
2017-Sep-13 18:00N 51°57' E 003°60'0 0.0
2017-Sep-13 17:30N 51°57' E 003°60'0 0.0
2017-Sep-13 17:00N 51°57' E 003°60'0 0.0
2017-Sep-13 16:30N 51°57' E 003°60'0 0.0
2017-Sep-13 15:59N 51°57' E 003°60'0 0.0
2017-Sep-13 15:30N 51°57' E 003°60'0 0.0
2017-Sep-13 15:00N 51°57' E 003°60'0 0.0
2017-Sep-13 14:30N 51°57' E 003°60'0 0.0
2017-Sep-13 14:00N 51°57' E 003°60'0 0.0
2017-Sep-13 13:29N 51°57' E 003°60'0 0.0
2017-Sep-13 13:00N 51°57' E 003°60'0 0.0
2017-Sep-13 12:30N 51°57' E 003°60'0 0.0
2017-Sep-13 12:00N 51°57' E 003°60'0 0.0
2017-Sep-13 11:30N 51°57' E 003°60'0 0.0
2017-Sep-13 11:00N 51°57' E 003°60'0 0.0
2017-Sep-13 10:30N 51°57' E 003°60'0 0.0
2017-Sep-13 10:00N 51°57' E 003°60'0 0.0
2017-Sep-13 09:30N 51°57' E 003°60'0 0.0
2017-Sep-13 08:59N 51°57' E 003°60'0 0.0
2017-Sep-13 08:30N 51°57' E 003°60'0 0.0
2017-Sep-13 08:00N 51°57' E 003°60'0 0.0
2017-Sep-13 07:30N 51°57' E 003°60'0 0.0
2017-Sep-13 07:00N 51°57' E 003°60'0 0.0
2017-Sep-13 06:30N 51°57' E 003°60'0 0.0
2017-Sep-13 06:00N 51°57' E 003°60'0 0.0
2017-Sep-13 05:30N 51°57' E 003°60'0 0.0
2017-Sep-13 05:00N 51°57' E 003°60'0 0.0
2017-Sep-13 04:30N 51°57' E 003°60'0 0.0
2017-Sep-13 04:00N 51°57' E 003°60'0 0.0
2017-Sep-13 03:30N 51°57' E 003°60'0 0.0
2017-Sep-13 03:00N 51°57' E 003°60'0 0.0
2017-Sep-13 02:30N 51°57' E 003°60'0 0.0
2017-Sep-13 02:00N 51°57' E 003°60'0 0.0
2017-Sep-13 01:30N 51°57' E 003°60'0 0.0
2017-Sep-13 01:00N 51°57' E 003°60'0 0.0
2017-Sep-13 00:30N 51°57' E 003°60'0 0.0
2017-Sep-13 00:00N 51°57' E 003°60'0 0.0
2017-Sep-12 23:30N 51°57' E 003°60'0 0.0
2017-Sep-12 23:00N 51°57' E 003°60'0 0.0
2017-Sep-12 22:30N 51°57' E 003°60'0 0.0
2017-Sep-12 22:00N 51°57' E 003°60'0 0.0
2017-Sep-12 21:30N 51°57' E 003°60'0 0.0
2017-Sep-12 21:00N 51°57' E 003°60'1 1.9
2017-Sep-12 20:31N 51°58' E 003°60'1 2.9
2017-Sep-12 20:01N 51°58' E 004°02'1 1.8
2017-Sep-12 19:30N 51°58' E 004°03'0 0.0
2017-Sep-12 19:00N 51°58' E 004°03'0 0.0
2017-Sep-12 18:30N 51°58' E 004°03'0 0.0
2017-Sep-12 18:00N 51°58' E 004°03'0 0.0
2017-Sep-12 17:30N 51°58' E 004°03'0 0.0
2017-Sep-12 17:00N 51°58' E 004°03'0 0.0
2017-Sep-12 16:30N 51°58' E 004°03'0 0.0
2017-Sep-12 16:00N 51°58' E 004°03'0 0.0
2017-Sep-12 15:30N 51°58' E 004°03'0 0.0
2017-Sep-12 15:00N 51°58' E 004°03'0 0.0
2017-Sep-12 14:30N 51°58' E 004°03'0 0.0
2017-Sep-12 14:00N 51°58' E 004°03'0 0.0
2017-Sep-12 13:30N 51°58' E 004°03'0 0.0
2017-Sep-12 13:00N 51°58' E 004°03'0 0.0
2017-Sep-12 12:30N 51°58' E 004°03'0 0.0
2017-Sep-12 12:00N 51°58' E 004°03'0 0.0
2017-Sep-12 11:30N 51°58' E 004°03'0 0.0
2017-Sep-12 11:00N 51°58' E 004°03'0 0.0
2017-Sep-12 10:30N 51°58' E 004°03'0 0.0
2017-Sep-12 10:00N 51°58' E 004°03'0 0.0
2017-Sep-12 09:30N 51°58' E 004°03'0 0.0
2017-Sep-12 09:00N 51°58' E 004°03'0 0.0
2017-Sep-12 08:30N 51°58' E 004°03'0 0.0
2017-Sep-12 08:00N 51°58' E 004°03'0 0.0
2017-Sep-12 07:30N 51°58' E 004°03'0 0.0
2017-Sep-12 07:00N 51°58' E 004°03'0 0.0
2017-Sep-12 06:30N 51°58' E 004°03'0 0.0
2017-Sep-12 06:00N 51°58' E 004°03'0 0.0
2017-Sep-12 05:30N 51°58' E 004°03'0 0.0
2017-Sep-12 05:00N 51°58' E 004°03'0 0.0
2017-Sep-12 04:30N 51°58' E 004°03'0 0.0
2017-Sep-12 04:00N 51°58' E 004°03'0 0.0
2017-Sep-12 03:30N 51°58' E 004°03'0 0.0
2017-Sep-12 03:00N 51°58' E 004°03'0 0.0
2017-Sep-12 02:30N 51°58' E 004°03'0 0.0
2017-Sep-12 02:00N 51°58' E 004°03'0 0.0
2017-Sep-12 01:30N 51°58' E 004°03'0 0.0
2017-Sep-12 01:00N 51°58' E 004°03'0 0.0
2017-Sep-12 00:30N 51°58' E 004°03'0 0.0
2017-Sep-12 00:00N 51°58' E 004°03'0 0.0
2017-Sep-11 23:30N 51°58' E 004°03'0 0.0
2017-Sep-11 23:00N 51°58' E 004°03'0 0.0
2017-Sep-11 22:30N 51°58' E 004°03'0 0.0
2017-Sep-11 22:00N 51°58' E 004°03'0 0.0
2017-Sep-11 21:30N 51°58' E 004°03'0 0.0
2017-Sep-11 21:00N 51°58' E 004°03'0 0.0
2017-Sep-11 20:30N 51°58' E 004°03'0 0.0
2017-Sep-11 20:00N 51°58' E 004°03'0 0.0
2017-Sep-11 19:30N 51°58' E 004°03'0 0.0
2017-Sep-11 19:00N 51°58' E 004°03'0 0.0
2017-Sep-11 18:30N 51°58' E 004°03'0 0.0
2017-Sep-11 18:00N 51°58' E 004°03'0 0.0
2017-Sep-11 17:30N 51°58' E 004°03'0 0.0
2017-Sep-11 17:00N 51°58' E 004°03'0 0.0
2017-Sep-11 16:30N 51°58' E 004°03'0 0.0
2017-Sep-11 16:00N 51°58' E 004°03'0 0.0
2017-Sep-11 15:30N 51°58' E 004°03'0 0.0
2017-Sep-11 15:00N 51°58' E 004°03'0 0.0
2017-Sep-11 14:30N 51°58' E 004°03'0 0.0
2017-Sep-11 14:00N 51°58' E 004°03'0 0.0
2017-Sep-11 13:30N 51°58' E 004°03'0 0.0
2017-Sep-11 13:00N 51°58' E 004°03'0 0.0
2017-Sep-11 12:30N 51°58' E 004°03'0 0.0
2017-Sep-11 12:00N 51°58' E 004°03'0 0.0
2017-Sep-11 11:30N 51°58' E 004°03'0 0.0
2017-Sep-11 11:00N 51°58' E 004°03'0 0.4
2017-Sep-11 10:30N 51°58' E 004°03'0 0.4
2017-Sep-11 10:00N 51°57' E 004°03'0 0.0
2017-Sep-11 09:30N 51°57' E 004°03'0 0.0
2017-Sep-11 09:00N 51°57' E 004°03'0 0.0
2017-Sep-11 08:30N 51°57' E 004°03'0 0.0
2017-Sep-11 08:00N 51°57' E 004°03'0 0.0
2017-Sep-11 07:30N 51°57' E 004°03'0 0.0
2017-Sep-11 06:58N 51°57' E 004°03'0 0.0
2017-Sep-11 06:28N 51°57' E 004°03'0 0.0
2017-Sep-11 05:58N 51°57' E 004°03'0 0.0
2017-Sep-11 05:30N 51°57' E 004°03'0 0.0
2017-Sep-11 05:00N 51°57' E 004°03'0 0.0
2017-Sep-11 04:30N 51°57' E 004°03'0 0.0
2017-Sep-11 04:00N 51°57' E 004°03'0 0.0
2017-Sep-11 03:29N 51°57' E 004°03'0 0.0
2017-Sep-11 02:59N 51°57' E 004°03'0 0.0
2017-Sep-11 02:29N 51°57' E 004°03'0 0.0
2017-Sep-11 01:59N 51°57' E 004°03'0 0.0
2017-Sep-11 01:29N 51°57' E 004°03'0 0.0
2017-Sep-11 00:58N 51°57' E 004°03'0 0.0
2017-Sep-11 00:28N 51°57' E 004°03'0 0.0
2017-Sep-10 23:58N 51°57' E 004°03'0 0.0
2017-Sep-10 23:28N 51°57' E 004°03'0 0.5
2017-Sep-10 23:01N 51°58' E 004°03'1 2.9
2017-Sep-10 22:31N 51°58' E 004°05'3 6.7
2017-Sep-10 22:01N 51°60' E 004°01'510.6
2017-Sep-10 21:30N 52°01' E 003°52'3 6.2
2017-Sep-10 21:00N 52°03' E 003°48'  
Track history (hours):
 
Tides and Currents Weather Stations Pressure Air Temp Water Temp Dewpoint Dewpoint Depression Visibility Wind Speed Wind Dir Waves Ship Positions

Jonni Ritscher

Last reported at 2017-Sep-20 20:34 UTC. Time now 2017-Sep-23 18:34 UTC.
Position N 59°35' E 022°58'.

Length 179 m; draft 10.6 m.

Type: Ship. MMSI: 636091136.

Date/timePositionNaut miles runAvg speedWind from/ knotsBaromVisibWave heightAir tempDewpointWater temp
2017-Sep-20 20:34N 59°35' E 022°58'1 9.8
2017-Sep-20 20:30N 59°35' E 022°59'5 9.9
2017-Sep-20 20:00N 59°37' E 023°09'5 9.7
2017-Sep-20 19:30N 59°38' E 023°18'5 9.5
2017-Sep-20 19:00N 59°39' E 023°27'5 9.6
2017-Sep-20 18:30N 59°41' E 023°36'5 9.6
2017-Sep-20 18:00N 59°42' E 023°45'5 9.6
2017-Sep-20 17:30N 59°43' E 023°54'5 9.7
2017-Sep-20 17:00N 59°45' E 024°03'510.1
2017-Sep-20 16:30N 59°46' E 024°13'5 9.9
2017-Sep-20 16:00N 59°47' E 024°23'5 9.7
2017-Sep-20 15:30N 59°48' E 024°32'5 9.7
2017-Sep-20 15:01N 59°49' E 024°42'46 9.7
2017-Sep-20 10:14N 59°58' E 026°12'2 9.6
2017-Sep-20 10:01N 59°59' E 026°16'5 9.7
2017-Sep-20 09:31N 60°00' E 026°26'5 9.7
2017-Sep-20 09:01N 60°01' E 026°35'5 9.7
2017-Sep-20 08:31N 60°01' E 026°45'5 9.9
2017-Sep-20 08:01N 60°00' E 026°54'5 9.5
2017-Sep-20 07:31N 59°60' E 027°04'5 9.9
2017-Sep-20 07:01N 60°02' E 027°12'5 9.8
2017-Sep-20 06:30N 60°05' E 027°21'5 9.9
2017-Sep-20 06:01N 60°07' E 027°29'5 9.8
2017-Sep-20 05:31N 60°10' E 027°38'5 9.6
2017-Sep-20 05:00N 60°12' E 027°46'5 9.9
2017-Sep-20 04:31N 60°11' E 027°56'5 9.9
2017-Sep-20 04:01N 60°10' E 028°05'5 9.8
2017-Sep-20 03:30N 60°09' E 028°15'5 9.5
2017-Sep-20 03:01N 60°06' E 028°22'5 9.6
2017-Sep-20 02:31N 60°03' E 028°31'5 9.7
2017-Sep-20 02:01N 60°03' E 028°41'5 9.5
2017-Sep-20 01:30N 60°03' E 028°50'5 9.6
2017-Sep-20 01:00N 60°02' E 028°60'5 9.9
2017-Sep-20 00:30N 60°02' E 029°10'5 9.8
2017-Sep-20 00:00N 60°02' E 029°20'4 8.9
2017-Sep-19 23:30N 60°01' E 029°28'611.1
2017-Sep-19 23:00N 59°60' E 029°39'510.0
2017-Sep-19 22:30N 59°58' E 029°48'611.7
2017-Sep-19 22:00N 59°56' E 029°59'5 9.5
2017-Sep-19 21:30N 59°54' E 030°08'2 4.6
2017-Sep-19 21:00N 59°53' E 030°12'0 0.0
2017-Sep-19 20:28N 59°53' E 030°12'0 0.0
2017-Sep-19 19:55N 59°53' E 030°12'0 0.0
2017-Sep-19 19:28N 59°53' E 030°12'0 0.0
2017-Sep-19 18:58N 59°53' E 030°12'0 0.0
2017-Sep-19 18:31N 59°53' E 030°12'0 0.0
2017-Sep-19 17:54N 59°53' E 030°12'0 0.0
2017-Sep-19 17:30N 59°53' E 030°12'0 0.0
2017-Sep-19 17:00N 59°53' E 030°12'0 0.0
2017-Sep-19 16:14N 59°53' E 030°12'0 0.0
2017-Sep-19 15:59N 59°53' E 030°12'0 0.0
2017-Sep-19 15:29N 59°53' E 030°12'0 0.0
2017-Sep-19 14:56N 59°53' E 030°12'0 0.0
2017-Sep-19 14:26N 59°53' E 030°12'0 0.0
2017-Sep-19 13:59N 59°53' E 030°12'0 0.0
2017-Sep-19 13:28N 59°53' E 030°12'0 0.0
2017-Sep-19 12:58N 59°53' E 030°12'0 0.0
2017-Sep-19 12:28N 59°53' E 030°12'0 0.0
2017-Sep-19 11:58N 59°53' E 030°12'0 0.0
2017-Sep-19 11:31N 59°53' E 030°12'0 0.0
2017-Sep-19 11:00N 59°53' E 030°12'0 0.0
2017-Sep-19 10:30N 59°53' E 030°12'0 0.0
2017-Sep-19 10:00N 59°53' E 030°12'0 0.0
2017-Sep-19 09:30N 59°53' E 030°12'0 0.0
2017-Sep-19 08:53N 59°53' E 030°12'0 0.0
2017-Sep-19 08:29N 59°53' E 030°12'0 0.0
2017-Sep-19 07:59N 59°53' E 030°12'0 0.0
2017-Sep-19 07:26N 59°53' E 030°12'0 0.0
2017-Sep-19 06:59N 59°53' E 030°12'0 0.0
2017-Sep-19 06:25N 59°53' E 030°12'0 0.0
2017-Sep-19 05:58N 59°53' E 030°12'0 0.0
2017-Sep-19 05:28N 59°53' E 030°12'0 0.0
2017-Sep-19 04:58N 59°53' E 030°12'0 0.0
2017-Sep-19 04:24N 59°53' E 030°12'0 0.0
2017-Sep-19 04:00N 59°53' E 030°12'0 0.0
2017-Sep-19 03:27N 59°53' E 030°12'0 0.0
2017-Sep-19 03:00N 59°53' E 030°12'0 0.0
2017-Sep-19 02:30N 59°53' E 030°12'0 0.0
2017-Sep-19 01:59N 59°53' E 030°12'0 0.0
2017-Sep-19 01:29N 59°53' E 030°12'0 0.0
2017-Sep-19 00:59N 59°53' E 030°12'0 0.0
2017-Sep-19 00:29N 59°53' E 030°12'0 0.0
2017-Sep-18 23:58N 59°53' E 030°12'0 0.0
2017-Sep-18 23:28N 59°53' E 030°12'0 0.0
2017-Sep-18 22:58N 59°53' E 030°12'0 0.0
2017-Sep-18 22:30N 59°53' E 030°12'1 1.2
2017-Sep-18 22:01N 59°53' E 030°11'1 2.8
2017-Sep-18 21:30N 59°54' E 030°14'0 0.1
2017-Sep-18 20:58N 59°54' E 030°14'0 0.0
2017-Sep-18 20:30N 59°54' E 030°14'0 0.0
2017-Sep-18 20:00N 59°54' E 030°14'0 0.0
2017-Sep-18 19:30N 59°54' E 030°14'0 0.0
2017-Sep-18 19:00N 59°54' E 030°14'0 0.0
2017-Sep-18 18:29N 59°54' E 030°14'0 0.0
2017-Sep-18 17:59N 59°54' E 030°14'0 0.0
2017-Sep-18 17:29N 59°54' E 030°14'0 0.0
2017-Sep-18 16:59N 59°54' E 030°14'0 0.0
2017-Sep-18 16:29N 59°54' E 030°14'0 0.0
2017-Sep-18 15:58N 59°54' E 030°14'0 0.0
2017-Sep-18 15:28N 59°54' E 030°14'0 0.0
2017-Sep-18 15:00N 59°54' E 030°14'0 0.0
2017-Sep-18 14:30N 59°54' E 030°14'0 0.0
2017-Sep-18 14:00N 59°54' E 030°14'0 0.0
2017-Sep-18 13:29N 59°54' E 030°14'0 0.0
2017-Sep-18 12:59N 59°54' E 030°14'0 0.0
2017-Sep-18 12:29N 59°54' E 030°14'0 0.0
2017-Sep-18 11:56N 59°54' E 030°14'0 0.0
2017-Sep-18 11:28N 59°54' E 030°14'0 0.0
2017-Sep-18 10:58N 59°54' E 030°14'0 0.0
2017-Sep-18 10:28N 59°54' E 030°14'0 0.0
2017-Sep-18 09:55N 59°54' E 030°14'0 0.0
2017-Sep-18 09:28N 59°54' E 030°14'0 0.0
2017-Sep-18 09:00N 59°54' E 030°14'0 0.0
2017-Sep-18 08:30N 59°54' E 030°14'0 0.0
2017-Sep-18 07:59N 59°54' E 030°14'0 0.0
2017-Sep-18 07:28N 59°54' E 030°14'0 0.0
2017-Sep-18 07:00N 59°54' E 030°14'0 0.0
2017-Sep-18 06:29N 59°54' E 030°14'0 0.0
2017-Sep-18 06:00N 59°54' E 030°14'0 0.0
2017-Sep-18 05:30N 59°54' E 030°14'0 0.0
2017-Sep-18 05:00N 59°54' E 030°14'0 0.0
2017-Sep-18 04:29N 59°54' E 030°14'0 0.0
2017-Sep-18 03:56N 59°54' E 030°14'0 0.0
2017-Sep-18 03:30N 59°54' E 030°14'1 2.6
2017-Sep-18 03:00N 59°53' E 030°11'3 6.4
2017-Sep-18 02:30N 59°54' E 030°05'510.4
2017-Sep-18 02:00N 59°56' E 029°56'611.4
2017-Sep-18 01:30N 59°59' E 029°45'510.6
2017-Sep-18 01:00N 60°01' E 029°35'5 9.2
2017-Sep-18 00:30N 60°01' E 029°26'612.8
2017-Sep-18 00:00N 60°02' E 029°14'815.9
2017-Sep-17 23:30N 60°02' E 028°58'815.2
2017-Sep-17 23:00N 60°02' E 028°43'815.3
2017-Sep-17 22:30N 60°03' E 028°27'714.9
2017-Sep-17 22:00N 60°07' E 028°15'815.5
2017-Sep-17 21:31N 60°09' E 028°00'714.6
2017-Sep-17 21:01N 60°11' E 027°46'714.3
2017-Sep-17 20:31N 60°07' E 027°34'714.2
2017-Sep-17 20:01N 60°03' E 027°21'714.3
2017-Sep-17 19:31N 59°60' E 027°09'714.7
2017-Sep-17 19:01N 59°58' E 026°55'815.7
2017-Sep-17 18:30N 59°59' E 026°39'815.8
2017-Sep-17 18:01N 59°57' E 026°24'4316.0
2017-Sep-17 15:18N 59°47' E 025°00'516.1
2017-Sep-17 15:01N 59°46' E 024°51'816.1
2017-Sep-17 14:31N 59°45' E 024°35'816.1
2017-Sep-17 14:01N 59°43' E 024°19'1016.3
2017-Sep-17 13:24N 59°40' E 024°01'819.1
2017-Sep-17 13:00N 59°38' E 023°47'1019.5
2017-Sep-17 12:30N 59°35' E 023°28'1019.4
2017-Sep-17 12:00N 59°31' E 023°10'26319.6
2017-Sep-16 22:36N 56°21' E 017°27'219.8
2017-Sep-16 22:30N 56°20' E 017°24'1019.7
2017-Sep-16 22:00N 56°14' E 017°10'1019.8
2017-Sep-16 21:30N 56°08' E 016°56'1019.8
2017-Sep-16 21:00N 56°02' E 016°42'1019.6
2017-Sep-16 20:30N 55°57' E 016°28'1019.5
2017-Sep-16 20:00N 55°52' E 016°12'1019.5
2017-Sep-16 19:30N 55°47' E 015°57'1019.6
2017-Sep-16 19:00N 55°43' E 015°42'1019.5
2017-Sep-16 18:30N 55°38' E 015°27'1019.4
2017-Sep-16 18:00N 55°34' E 015°11'1019.8
2017-Sep-16 17:30N 55°29' E 014°56'1020.2
2017-Sep-16 17:00N 55°24' E 014°40'1019.6
2017-Sep-16 16:30N 55°16' E 014°29'1019.7
2017-Sep-16 16:00N 55°09' E 014°19'1019.5
2017-Sep-16 15:30N 55°01' E 014°08'3319.4
2017-Sep-16 13:49N 54°51' E 013°14'3419.1
2017-Sep-16 12:03N 54°36' E 012°21'119.2
2017-Sep-16 12:00N 54°36' E 012°20'918.9
2017-Sep-16 11:30N 54°27' E 012°13'1718.1
2017-Sep-16 10:36N 54°24' E 011°45'519.6
2017-Sep-16 10:21N 54°27' E 011°38'719.6
2017-Sep-16 10:00N 54°30' E 011°27'1019.5
2017-Sep-16 09:30N 54°34' E 011°12'1019.5
2017-Sep-16 09:00N 54°40' E 010°58'714.9
2017-Sep-16 08:30N 54°46' E 010°52'815.8
2017-Sep-16 08:00N 54°54' E 010°53'815.3
2017-Sep-16 07:30N 54°60' E 011°01'816.6
2017-Sep-16 07:00N 55°08' E 011°03'714.1
2017-Sep-16 06:31N 55°15' E 011°05'9415.2
2017-Sep-16 00:19N 56°46' E 011°51'514.8
2017-Sep-16 00:00N 56°50' E 011°49'915.0
2017-Sep-15 23:23N 56°59' E 011°43'1014.6
2017-Sep-15 22:44N 57°08' E 011°37'314.2
2017-Sep-15 22:29N 57°11' E 011°35'714.1
2017-Sep-15 21:59N 57°18' E 011°31'714.1
2017-Sep-15 21:30N 57°24' E 011°26'714.5
2017-Sep-15 21:00N 57°30' E 011°19'814.7
2017-Sep-15 20:30N 57°35' E 011°08'815.0
2017-Sep-15 20:00N 57°40' E 010°58'815.3
2017-Sep-15 19:30N 57°45' E 010°48'815.2
2017-Sep-15 19:00N 57°48' E 010°34'918.1
2017-Sep-15 18:30N 57°46' E 010°18'1118.4
2017-Sep-15 17:53N 57°42' E 009°58'27318.9
2017-Sep-15 03:27N 54°03' E 005°07'817.3
2017-Sep-15 02:59N 53°55' E 005°02'917.3
2017-Sep-15 02:29N 53°47' E 004°57'917.4
2017-Sep-15 01:59N 53°39' E 004°52'1617.4
2017-Sep-15 01:03N 53°24' E 004°41'117.4
2017-Sep-15 01:00N 53°23' E 004°41'2117.7
2017-Sep-14 23:50N 53°04' E 004°25'617.7
2017-Sep-14 23:30N 52°59' E 004°21'917.9
2017-Sep-14 23:00N 52°51' E 004°14'917.9
2017-Sep-14 22:30N 52°44' E 004°07'917.9
2017-Sep-14 22:00N 52°36' E 003°60'917.7
2017-Sep-14 21:29N 52°27' E 003°54'917.6
2017-Sep-14 21:00N 52°19' E 003°52'816.6
2017-Sep-14 20:30N 52°11' E 003°54'611.5
2017-Sep-14 20:00N 52°05' E 003°54'2 3.4
2017-Sep-14 19:30N 52°04' E 003°57'4 8.5
2017-Sep-14 19:00N 52°00' E 004°01'3 5.4
2017-Sep-14 18:30N 51°58' E 004°03'2 3.9
2017-Sep-14 18:00N 51°57' E 003°60'0 0.0
2017-Sep-14 17:30N 51°57' E 003°60'0 0.0
2017-Sep-14 16:56N 51°57' E 003°60'0 0.0
2017-Sep-14 16:26N 51°57' E 003°60'0 0.0
2017-Sep-14 15:56N 51°57' E 003°60'0 0.0
2017-Sep-14 15:26N 51°57' E 003°60'0 0.0
2017-Sep-14 14:59N 51°57' E 003°60'0 0.0
2017-Sep-14 14:28N 51°57' E 003°60'0 0.0
2017-Sep-14 14:00N 51°57' E 003°60'0 0.0
2017-Sep-14 13:30N 51°57' E 003°60'0 0.0
2017-Sep-14 12:57N 51°57' E 003°60'0 0.0
2017-Sep-14 12:29N 51°57' E 003°60'0 0.0
2017-Sep-14 11:56N 51°57' E 003°60'0 0.0
2017-Sep-14 11:29N 51°57' E 003°60'0 0.0
2017-Sep-14 10:55N 51°57' E 003°60'0 0.0
2017-Sep-14 10:30N 51°57' E 003°60'0 0.0
2017-Sep-14 10:00N 51°57' E 003°60'0 0.0
2017-Sep-14 09:30N 51°57' E 003°60'0 0.0
2017-Sep-14 09:00N 51°57' E 003°60'0 0.0
2017-Sep-14 08:30N 51°57' E 003°60'0 0.0
2017-Sep-14 08:00N 51°57' E 003°60'0 0.0
2017-Sep-14 07:30N 51°57' E 003°60'0 0.0
2017-Sep-14 07:00N 51°57' E 003°60'0 0.0
2017-Sep-14 06:30N 51°57' E 003°60'0 0.0
2017-Sep-14 06:00N 51°57' E 003°60'0 0.0
2017-Sep-14 05:30N 51°57' E 003°60'0 0.0
2017-Sep-14 05:00N 51°57' E 003°60'0 0.0
2017-Sep-14 04:30N 51°57' E 003°60'0 0.0
2017-Sep-14 04:00N 51°57' E 003°60'0 0.0
2017-Sep-14 03:30N 51°57' E 003°60'0 0.0
2017-Sep-14 03:00N 51°57' E 003°60'0 0.0
2017-Sep-14 02:30N 51°57' E 003°60'0 0.0
2017-Sep-14 02:00N 51°57' E 003°60'0 0.0
2017-Sep-14 01:30N 51°57' E 003°60'0 0.0
2017-Sep-14 01:00N 51°57' E 003°60'0 0.0
2017-Sep-14 00:30N 51°57' E 003°60'0 0.0
2017-Sep-14 00:00N 51°57' E 003°60'0 0.0
2017-Sep-13 23:30N 51°57' E 003°60'0 0.0
2017-Sep-13 23:00N 51°57' E 003°60'0 0.0
2017-Sep-13 22:30N 51°57' E 003°60'0 0.0
2017-Sep-13 22:00N 51°57' E 003°60'0 0.0
2017-Sep-13 21:30N 51°57' E 003°60'0 0.0
2017-Sep-13 21:00N 51°57' E 003°60'0 0.0
2017-Sep-13 20:30N 51°57' E 003°60'0 0.0
2017-Sep-13 20:00N 51°57' E 003°60'0 0.0
2017-Sep-13 19:30N 51°57' E 003°60'0 0.0
2017-Sep-13 19:00N 51°57' E 003°60'0 0.0
2017-Sep-13 18:30N 51°57' E 003°60'0 0.0
2017-Sep-13 18:00N 51°57' E 003°60'0 0.0
2017-Sep-13 17:30N 51°57' E 003°60'0 0.0
2017-Sep-13 17:00N 51°57' E 003°60'0 0.0
2017-Sep-13 16:30N 51°57' E 003°60'0 0.0
2017-Sep-13 15:59N 51°57' E 003°60'0 0.0
2017-Sep-13 15:30N 51°57' E 003°60'0 0.0
2017-Sep-13 15:00N 51°57' E 003°60'0 0.0
2017-Sep-13 14:30N 51°57' E 003°60'0 0.0
2017-Sep-13 14:00N 51°57' E 003°60'0 0.0
2017-Sep-13 13:29N 51°57' E 003°60'0 0.0
2017-Sep-13 13:00N 51°57' E 003°60'0 0.0
2017-Sep-13 12:30N 51°57' E 003°60'0 0.0
2017-Sep-13 12:00N 51°57' E 003°60'0 0.0
2017-Sep-13 11:30N 51°57' E 003°60'0 0.0
2017-Sep-13 11:00N 51°57' E 003°60'0 0.0
2017-Sep-13 10:30N 51°57' E 003°60'0 0.0
2017-Sep-13 10:00N 51°57' E 003°60'0 0.0
2017-Sep-13 09:30N 51°57' E 003°60'0 0.0
2017-Sep-13 08:59N 51°57' E 003°60'0 0.0
2017-Sep-13 08:30N 51°57' E 003°60'0 0.0
2017-Sep-13 08:00N 51°57' E 003°60'0 0.0
2017-Sep-13 07:30N 51°57' E 003°60'0 0.0
2017-Sep-13 07:00N 51°57' E 003°60'0 0.0
2017-Sep-13 06:30N 51°57' E 003°60'0 0.0
2017-Sep-13 06:00N 51°57' E 003°60'0 0.0
2017-Sep-13 05:30N 51°57' E 003°60'0 0.0
2017-Sep-13 05:00N 51°57' E 003°60'0 0.0
2017-Sep-13 04:30N 51°57' E 003°60'0 0.0
2017-Sep-13 04:00N 51°57' E 003°60'0 0.0
2017-Sep-13 03:30N 51°57' E 003°60'0 0.0
2017-Sep-13 03:00N 51°57' E 003°60'0 0.0
2017-Sep-13 02:30N 51°57' E 003°60'0 0.0
2017-Sep-13 02:00N 51°57' E 003°60'0 0.0
2017-Sep-13 01:30N 51°57' E 003°60'0 0.0
2017-Sep-13 01:00N 51°57' E 003°60'0 0.0
2017-Sep-13 00:30N 51°57' E 003°60'0 0.0
2017-Sep-13 00:00N 51°57' E 003°60'0 0.0
2017-Sep-12 23:30N 51°57' E 003°60'0 0.0
2017-Sep-12 23:00N 51°57' E 003°60'0 0.0
2017-Sep-12 22:30N 51°57' E 003°60'0 0.0
2017-Sep-12 22:00N 51°57' E 003°60'0 0.0
2017-Sep-12 21:30N 51°57' E 003°60'0 0.0
2017-Sep-12 21:00N 51°57' E 003°60'1 1.9
2017-Sep-12 20:31N 51°58' E 003°60'1 2.9
2017-Sep-12 20:01N 51°58' E 004°02'1 1.8
2017-Sep-12 19:30N 51°58' E 004°03'0 0.0
2017-Sep-12 19:00N 51°58' E 004°03'0 0.0
2017-Sep-12 18:30N 51°58' E 004°03'0 0.0
2017-Sep-12 18:00N 51°58' E 004°03'0 0.0
2017-Sep-12 17:30N 51°58' E 004°03'0 0.0
2017-Sep-12 17:00N 51°58' E 004°03'0 0.0
2017-Sep-12 16:30N 51°58' E 004°03'0 0.0
2017-Sep-12 16:00N 51°58' E 004°03'0 0.0
2017-Sep-12 15:30N 51°58' E 004°03'0 0.0
2017-Sep-12 15:00N 51°58' E 004°03'0 0.0
2017-Sep-12 14:30N 51°58' E 004°03'0 0.0
2017-Sep-12 14:00N 51°58' E 004°03'0 0.0
2017-Sep-12 13:30N 51°58' E 004°03'0 0.0
2017-Sep-12 13:00N 51°58' E 004°03'0 0.0
2017-Sep-12 12:30N 51°58' E 004°03'0 0.0
2017-Sep-12 12:00N 51°58' E 004°03'0 0.0
2017-Sep-12 11:30N 51°58' E 004°03'0 0.0
2017-Sep-12 11:00N 51°58' E 004°03'0 0.0
2017-Sep-12 10:30N 51°58' E 004°03'0 0.0
2017-Sep-12 10:00N 51°58' E 004°03'0 0.0
2017-Sep-12 09:30N 51°58' E 004°03'0 0.0
2017-Sep-12 09:00N 51°58' E 004°03'0 0.0
2017-Sep-12 08:30N 51°58' E 004°03'0 0.0
2017-Sep-12 08:00N 51°58' E 004°03'0 0.0
2017-Sep-12 07:30N 51°58' E 004°03'0 0.0
2017-Sep-12 07:00N 51°58' E 004°03'0 0.0
2017-Sep-12 06:30N 51°58' E 004°03'0 0.0
2017-Sep-12 06:00N 51°58' E 004°03'0 0.0
2017-Sep-12 05:30N 51°58' E 004°03'0 0.0
2017-Sep-12 05:00N 51°58' E 004°03'0 0.0
2017-Sep-12 04:30N 51°58' E 004°03'0 0.0
2017-Sep-12 04:00N 51°58' E 004°03'0 0.0
2017-Sep-12 03:30N 51°58' E 004°03'0 0.0
2017-Sep-12 03:00N 51°58' E 004°03'0 0.0
2017-Sep-12 02:30N 51°58' E 004°03'0 0.0
2017-Sep-12 02:00N 51°58' E 004°03'0 0.0
2017-Sep-12 01:30N 51°58' E 004°03'0 0.0
2017-Sep-12 01:00N 51°58' E 004°03'0 0.0
2017-Sep-12 00:30N 51°58' E 004°03'0 0.0
2017-Sep-12 00:00N 51°58' E 004°03'0 0.0
2017-Sep-11 23:30N 51°58' E 004°03'0 0.0
2017-Sep-11 23:00N 51°58' E 004°03'0 0.0
2017-Sep-11 22:30N 51°58' E 004°03'0 0.0
2017-Sep-11 22:00N 51°58' E 004°03'0 0.0
2017-Sep-11 21:30N 51°58' E 004°03'0 0.0
2017-Sep-11 21:00N 51°58' E 004°03'0 0.0
2017-Sep-11 20:30N 51°58' E 004°03'0 0.0
2017-Sep-11 20:00N 51°58' E 004°03'0 0.0
2017-Sep-11 19:30N 51°58' E 004°03'0 0.0
2017-Sep-11 19:00N 51°58' E 004°03'0 0.0
2017-Sep-11 18:30N 51°58' E 004°03'0 0.0
2017-Sep-11 18:00N 51°58' E 004°03'0 0.0
2017-Sep-11 17:30N 51°58' E 004°03'0 0.0
2017-Sep-11 17:00N 51°58' E 004°03'0 0.0
2017-Sep-11 16:30N 51°58' E 004°03'0 0.0
2017-Sep-11 16:00N 51°58' E 004°03'0 0.0
2017-Sep-11 15:30N 51°58' E 004°03'0 0.0
2017-Sep-11 15:00N 51°58' E 004°03'0 0.0
2017-Sep-11 14:30N 51°58' E 004°03'0 0.0
2017-Sep-11 14:00N 51°58' E 004°03'0 0.0
2017-Sep-11 13:30N 51°58' E 004°03'0 0.0
2017-Sep-11 13:00N 51°58' E 004°03'0 0.0
2017-Sep-11 12:30N 51°58' E 004°03'0 0.0
2017-Sep-11 12:00N 51°58' E 004°03'0 0.0
2017-Sep-11 11:30N 51°58' E 004°03'0 0.0
2017-Sep-11 11:00N 51°58' E 004°03'0 0.4
2017-Sep-11 10:30N 51°58' E 004°03'0 0.4
2017-Sep-11 10:00N 51°57' E 004°03'0 0.0
2017-Sep-11 09:30N 51°57' E 004°03'0 0.0
2017-Sep-11 09:00N 51°57' E 004°03'0 0.0
2017-Sep-11 08:30N 51°57' E 004°03'0 0.0
2017-Sep-11 08:00N 51°57' E 004°03'0 0.0
2017-Sep-11 07:30N 51°57' E 004°03'0 0.0
2017-Sep-11 06:58N 51°57' E 004°03'0 0.0
2017-Sep-11 06:28N 51°57' E 004°03'0 0.0
2017-Sep-11 05:58N 51°57' E 004°03'0 0.0
2017-Sep-11 05:30N 51°57' E 004°03'0 0.0
2017-Sep-11 05:00N 51°57' E 004°03'0 0.0
2017-Sep-11 04:30N 51°57' E 004°03'0 0.0
2017-Sep-11 04:00N 51°57' E 004°03'0 0.0
2017-Sep-11 03:29N 51°57' E 004°03'0 0.0
2017-Sep-11 02:59N 51°57' E 004°03'0 0.0
2017-Sep-11 02:29N 51°57' E 004°03'0 0.0
2017-Sep-11 01:59N 51°57' E 004°03'0 0.0
2017-Sep-11 01:29N 51°57' E 004°03'0 0.0
2017-Sep-11 00:58N 51°57' E 004°03'0 0.0
2017-Sep-11 00:28N 51°57' E 004°03'0 0.0
2017-Sep-10 23:58N 51°57' E 004°03'0 0.0
2017-Sep-10 23:28N 51°57' E 004°03'0 0.5
2017-Sep-10 23:01N 51°58' E 004°03'1 2.9
2017-Sep-10 22:31N 51°58' E 004°05'3 6.7
2017-Sep-10 22:01N 51°60' E 004°01'510.6
2017-Sep-10 21:30N 52°01' E 003°52'3 6.2
2017-Sep-10 21:00N 52°03' E 003°48'  

Dump ship's entire track history